createdAt,value
2022-11-07T00:01:23.229Z,9.56
2022-11-07T00:03:50.289Z,9.66
2022-11-07T00:06:17.111Z,9.66
2022-11-07T00:08:45.905Z,9.69
2022-11-07T00:11:12.834Z,9.80
2022-11-07T00:13:39.742Z,9.65
2022-11-07T00:16:10.677Z,9.66
2022-11-07T00:18:38.539Z,9.72
2022-11-07T00:21:07.685Z,9.76
2022-11-07T00:23:35.454Z,9.79
2022-11-07T00:26:03.762Z,9.81
2022-11-07T00:28:34.293Z,9.84
2022-11-07T00:31:01.274Z,9.90
2022-11-07T00:33:28.314Z,9.85
2022-11-07T00:35:55.239Z,9.86
2022-11-07T00:38:22.061Z,9.93
2022-11-07T00:40:56.926Z,9.95
2022-11-07T00:43:24.329Z,9.96
2022-11-07T00:45:51.656Z,9.89
2022-11-07T00:48:18.755Z,9.90
2022-11-07T00:50:45.949Z,9.90
2022-11-07T00:53:13.098Z,9.98
2022-11-07T00:55:40.498Z,9.98
2022-11-07T00:58:12.555Z,10.01
2022-11-07T01:00:41.067Z,10.03
2022-11-07T01:03:26.614Z,9.97
2022-11-07T01:05:58.092Z,9.96
2022-11-07T01:08:28.595Z,9.93
2022-11-07T01:10:56.023Z,9.99
2022-11-07T01:13:24.016Z,9.97
2022-11-07T01:15:51.403Z,9.97
2022-11-07T01:18:18.557Z,9.95
2022-11-07T01:20:45.407Z,9.95
2022-11-07T01:23:12.896Z,9.94
2022-11-07T01:25:40.179Z,10.08
2022-11-07T01:28:08.107Z,10.08
2022-11-07T01:30:40.280Z,10.10
2022-11-07T01:33:07.626Z,10.05
2022-11-07T01:35:35.433Z,10.08
2022-11-07T01:38:02.285Z,10.03
2022-11-07T01:40:29.590Z,10.10
2022-11-07T01:42:56.805Z,10.19
2022-11-07T01:45:29.839Z,10.18
2022-11-07T01:48:01.408Z,10.17
2022-11-07T01:50:28.496Z,10.13
2022-11-07T01:52:56.259Z,10.06
2022-11-07T01:55:29.442Z,10.15
2022-11-07T01:58:03.257Z,10.20
2022-11-07T02:00:31.710Z,10.12
2022-11-07T02:03:02.462Z,10.16
2022-11-07T02:05:35.804Z,10.19
2022-11-07T02:08:05.734Z,10.20
2022-11-07T02:10:35.384Z,10.17
2022-11-07T02:13:03.596Z,10.27
2022-11-07T02:15:30.989Z,10.25
2022-11-07T02:17:59.089Z,10.28
2022-11-07T02:20:26.087Z,10.23
2022-11-07T02:23:18.946Z,10.23
2022-11-07T02:25:46.057Z,10.22
2022-11-07T02:28:14.231Z,10.16
2022-11-07T02:30:41.260Z,10.18
2022-11-07T02:33:22.079Z,10.21
2022-11-07T02:35:51.248Z,10.27
2022-11-07T02:38:25.536Z,10.17
2022-11-07T02:40:56.236Z,10.30
2022-11-07T02:43:26.431Z,10.21
2022-11-07T02:45:54.641Z,10.28
2022-11-07T02:48:21.562Z,10.25
2022-11-07T02:50:48.599Z,10.26
2022-11-07T02:53:15.794Z,10.26
2022-11-07T02:55:43.194Z,10.33
2022-11-07T02:58:10.062Z,10.37
2022-11-07T03:00:36.950Z,10.42
2022-11-07T03:03:03.930Z,10.42
2022-11-07T03:05:30.824Z,10.37
2022-11-07T03:07:57.577Z,10.41
2022-11-07T03:10:24.676Z,10.26
2022-11-07T03:12:51.992Z,10.44
2022-11-07T03:15:19.007Z,10.40
2022-11-07T03:17:46.278Z,10.41
2022-11-07T03:20:13.317Z,10.34
2022-11-07T03:22:40.643Z,10.33
2022-11-07T03:25:08.668Z,10.41
2022-11-07T03:27:35.600Z,10.47
2022-11-07T03:30:02.620Z,10.42
2022-11-07T03:32:29.692Z,10.41
2022-11-07T03:34:56.561Z,10.44
2022-11-07T03:37:23.546Z,10.42
2022-11-07T03:39:50.877Z,10.39
2022-11-07T03:42:17.866Z,10.36
2022-11-07T03:44:44.690Z,10.34
2022-11-07T03:47:11.705Z,10.44
2022-11-07T03:49:38.590Z,10.44
2022-11-07T03:52:05.577Z,10.42
2022-11-07T03:54:32.620Z,10.46
2022-11-07T03:56:59.848Z,10.47
2022-11-07T03:59:26.659Z,10.36
2022-11-07T04:01:53.950Z,10.37
2022-11-07T04:04:21.517Z,10.31
2022-11-07T04:06:48.567Z,10.40
2022-11-07T04:09:15.461Z,10.47
2022-11-07T04:12:00.799Z,10.50
2022-11-07T04:14:46.359Z,10.52
2022-11-07T04:17:19.578Z,10.57
2022-11-07T04:19:51.745Z,10.54
2022-11-07T04:22:19.438Z,10.52
2022-11-07T04:24:46.616Z,10.55
2022-11-07T04:27:36.191Z,10.64
2022-11-07T04:30:23.976Z,10.58
2022-11-07T04:32:55.879Z,10.71
2022-11-07T04:35:24.720Z,10.69
2022-11-07T04:37:51.869Z,10.72
2022-11-07T04:40:19.313Z,10.75
2022-11-07T04:42:47.343Z,10.84
2022-11-07T04:45:16.541Z,10.94
2022-11-07T04:47:43.607Z,10.89
2022-11-07T04:50:16.343Z,10.85
2022-11-07T04:52:43.444Z,10.80
2022-11-07T04:55:18.732Z,10.79
2022-11-07T04:57:45.858Z,10.85
2022-11-07T05:00:13.410Z,10.79
2022-11-07T05:02:40.506Z,10.82
2022-11-07T05:05:08.019Z,10.90
2022-11-07T05:07:34.892Z,10.96
2022-11-07T05:10:01.979Z,10.88
2022-11-07T05:12:28.892Z,10.92
2022-11-07T05:14:55.737Z,10.88
2022-11-07T05:17:27.699Z,10.82
2022-11-07T05:19:55.023Z,10.88
2022-11-07T05:22:40.689Z,10.95
2022-11-07T05:25:08.795Z,10.94
2022-11-07T05:27:35.877Z,11.00
2022-11-07T05:30:02.901Z,10.98
2022-11-07T05:32:29.649Z,10.92
2022-11-07T05:34:56.582Z,10.96
2022-11-07T05:37:23.676Z,10.93
2022-11-07T05:39:54.846Z,10.99
2022-11-07T05:42:22.181Z,11.15
2022-11-07T05:44:49.213Z,11.10
2022-11-07T05:47:16.166Z,11.12
2022-11-07T05:49:43.095Z,11.15
2022-11-07T05:52:10.145Z,11.13
2022-11-07T05:54:37.012Z,11.08
2022-11-07T05:57:04.457Z,11.05
2022-11-07T05:59:31.335Z,11.03
2022-11-07T06:01:58.372Z,11.04
2022-11-07T06:04:25.279Z,11.06
2022-11-07T06:06:52.285Z,10.98
2022-11-07T06:09:19.209Z,11.08
2022-11-07T06:11:46.001Z,11.11
2022-11-07T06:14:12.884Z,11.09
2022-11-07T06:16:39.827Z,11.16
2022-11-07T06:19:06.826Z,11.21
2022-11-07T06:21:35.074Z,11.18
2022-11-07T06:24:02.020Z,11.18
2022-11-07T06:26:29.143Z,11.16
2022-11-07T06:28:56.485Z,11.16
2022-11-07T06:31:23.736Z,11.27
2022-11-07T06:33:51.524Z,11.27
2022-11-07T06:36:18.740Z,11.33
2022-11-07T06:38:45.744Z,11.28
2022-11-07T06:41:14.712Z,11.27
2022-11-07T06:43:42.028Z,11.27
2022-11-07T06:46:11.877Z,11.30
2022-11-07T06:48:39.282Z,11.27
2022-11-07T06:51:07.568Z,11.29
2022-11-07T06:53:34.688Z,11.38
2022-11-07T06:56:03.079Z,11.35
2022-11-07T06:58:30.041Z,11.45
2022-11-07T07:01:08.577Z,11.47
2022-11-07T07:03:38.786Z,11.47
2022-11-07T07:06:07.479Z,11.56
2022-11-07T07:08:34.550Z,11.66
2022-11-07T07:11:06.359Z,11.66
2022-11-07T07:13:34.091Z,11.56
2022-11-07T07:16:01.696Z,11.63
2022-11-07T07:18:29.045Z,11.61
2022-11-07T07:21:05.223Z,11.65
2022-11-07T07:23:34.831Z,11.78
2022-11-07T07:26:03.020Z,11.79
2022-11-07T07:28:29.985Z,11.79
2022-11-07T07:31:35.730Z,11.83
2022-11-07T07:34:02.648Z,11.88
2022-11-07T07:36:29.718Z,11.81
2022-11-07T07:38:56.645Z,11.84
2022-11-07T07:41:23.595Z,11.92
2022-11-07T07:43:50.335Z,11.84
2022-11-07T07:46:20.411Z,11.91
2022-11-07T07:48:47.402Z,11.94
2022-11-07T07:51:14.469Z,12.06
2022-11-07T07:53:41.373Z,12.05
2022-11-07T07:56:08.466Z,12.06
2022-11-07T07:58:35.613Z,12.19
2022-11-07T08:01:03.770Z,12.17
2022-11-07T08:03:50.636Z,12.23
2022-11-07T08:06:17.531Z,12.35
2022-11-07T08:08:44.428Z,12.39
2022-11-07T08:11:11.465Z,12.43
2022-11-07T08:13:38.770Z,12.45
2022-11-07T08:16:07.956Z,12.56
2022-11-07T08:18:36.942Z,12.50
2022-11-07T08:21:03.838Z,12.59
2022-11-07T08:23:31.430Z,12.56
2022-11-07T08:25:59.749Z,12.60
2022-11-07T08:28:29.314Z,12.78
2022-11-07T08:31:05.141Z,12.85
2022-11-07T08:33:32.241Z,12.91
2022-11-07T08:36:00.728Z,12.94
2022-11-07T08:38:29.120Z,13.04
2022-11-07T08:40:56.577Z,13.03
2022-11-07T08:43:23.437Z,13.11
2022-11-07T08:45:50.606Z,13.10
2022-11-07T08:48:17.916Z,13.12
2022-11-07T08:50:44.728Z,13.27
2022-11-07T08:53:12.423Z,13.21
2022-11-07T08:55:39.537Z,13.29
2022-11-07T08:58:08.362Z,13.29
2022-11-07T09:00:36.509Z,13.38
2022-11-07T09:03:38.827Z,13.34
2022-11-07T09:05:52.910Z,13.38
2022-11-07T09:08:19.927Z,13.35
2022-11-07T09:10:46.990Z,13.43
2022-11-07T09:13:15.397Z,13.32
2022-11-07T09:15:47.656Z,13.38
2022-11-07T09:18:16.546Z,13.39
2022-11-07T09:20:43.416Z,13.41
2022-11-07T09:23:10.279Z,13.39
2022-11-07T09:25:39.853Z,13.39
2022-11-07T09:28:06.752Z,13.41
2022-11-07T09:30:33.694Z,13.37
2022-11-07T09:33:00.848Z,13.42
2022-11-07T09:35:27.958Z,13.48
2022-11-07T09:37:54.846Z,13.49
2022-11-07T09:41:23.465Z,13.55
2022-11-07T09:44:04.591Z,13.64
2022-11-07T09:46:54.604Z,13.58
2022-11-07T09:49:26.780Z,13.66
2022-11-07T09:55:46.726Z,13.77
2022-11-07T09:58:26.702Z,13.72
2022-11-07T10:00:55.612Z,13.82
2022-11-07T10:03:22.447Z,13.80
2022-11-07T10:06:26.201Z,13.81
2022-11-07T10:09:33.813Z,13.79
2022-11-07T10:12:24.762Z,13.73
2022-11-07T10:15:09.588Z,13.69
2022-11-07T10:18:07.169Z,13.72
2022-11-07T10:21:10.140Z,13.78
2022-11-07T10:23:55.373Z,13.70
2022-11-07T10:26:25.799Z,13.69
2022-11-07T10:29:00.842Z,13.68
2022-11-07T10:31:37.375Z,13.67
2022-11-07T10:34:13.878Z,13.69
2022-11-07T10:36:41.517Z,13.69
2022-11-07T10:39:15.432Z,13.68
2022-11-07T10:41:45.982Z,13.67
2022-11-07T10:44:25.269Z,13.73
2022-11-07T10:46:54.617Z,13.60
2022-11-07T10:49:26.798Z,13.71
2022-11-07T10:51:54.531Z,13.64
2022-11-07T10:54:31.425Z,13.67
2022-11-07T10:57:10.752Z,13.68
2022-11-07T10:59:41.929Z,13.75
2022-11-07T11:02:29.859Z,13.68
2022-11-07T11:05:02.693Z,13.68
2022-11-07T11:07:39.288Z,13.75
2022-11-07T11:10:28.743Z,13.84
2022-11-07T11:12:56.736Z,13.94
2022-11-07T11:15:29.937Z,13.86
2022-11-07T11:18:02.185Z,13.87
2022-11-07T11:20:41.835Z,13.90
2022-11-07T11:23:19.713Z,13.97
2022-11-07T11:25:49.828Z,13.92
2022-11-07T11:28:28.626Z,13.96
2022-11-07T11:31:01.670Z,13.91
2022-11-07T11:33:39.568Z,13.88
2022-11-07T11:36:19.866Z,13.93
2022-11-07T11:38:54.535Z,14.00
2022-11-07T11:41:51.325Z,14.04
2022-11-07T11:44:26.640Z,14.02
2022-11-07T11:47:19.485Z,13.97
2022-11-07T11:50:14.718Z,13.93
2022-11-07T11:52:42.201Z,14.02
2022-11-07T11:55:16.791Z,14.12
2022-11-07T11:58:12.297Z,14.06
2022-11-07T12:00:49.792Z,14.14
2022-11-07T12:03:35.377Z,14.14
2022-11-07T12:06:11.971Z,14.14
2022-11-07T12:09:01.003Z,14.10
2022-11-07T12:12:14.570Z,14.21
2022-11-07T12:15:05.135Z,14.19
2022-11-07T12:17:47.758Z,14.13
2022-11-07T12:20:39.309Z,14.21
2022-11-07T12:24:03.357Z,14.18
2022-11-07T12:26:58.000Z,14.30
2022-11-07T12:30:03.922Z,14.20
2022-11-07T12:32:42.530Z,14.24
2022-11-07T12:35:09.843Z,14.24
2022-11-07T12:41:58.589Z,14.24
2022-11-07T12:44:57.694Z,14.28
2022-11-07T12:48:13.473Z,14.24
2022-11-07T12:50:54.729Z,14.24
2022-11-07T12:53:43.732Z,14.26
2022-11-07T12:56:14.653Z,14.36
2022-11-07T12:58:44.063Z,14.36
2022-11-07T13:01:16.110Z,14.35
2022-11-07T13:03:56.120Z,14.30
2022-11-07T13:06:47.427Z,14.31
2022-11-07T13:09:57.637Z,14.32
2022-11-07T13:12:34.471Z,14.31
2022-11-07T13:15:04.672Z,14.28
2022-11-07T13:17:46.402Z,14.29
2022-11-07T13:20:28.472Z,14.37
2022-11-07T13:22:57.779Z,14.26
2022-11-07T13:25:30.373Z,14.36
2022-11-07T13:28:02.720Z,14.34
2022-11-07T13:30:40.738Z,14.34
2022-11-07T13:33:24.283Z,14.35
2022-11-07T13:35:56.910Z,14.31
2022-11-07T13:38:24.760Z,14.23
2022-11-07T13:40:58.903Z,14.35
2022-11-07T13:43:33.701Z,14.32
2022-11-07T13:46:03.969Z,14.39
2022-11-07T13:48:47.778Z,14.28
2022-11-07T13:51:31.635Z,14.31
2022-11-07T13:54:28.088Z,14.26
2022-11-07T13:57:18.320Z,14.24
2022-11-07T13:59:54.285Z,14.27
2022-11-07T14:02:32.624Z,14.21
2022-11-07T14:05:17.125Z,14.28
2022-11-07T14:07:58.151Z,14.21
2022-11-07T14:10:43.235Z,14.16
2022-11-07T14:13:20.105Z,14.23
2022-11-07T14:15:54.551Z,14.23
2022-11-07T14:18:24.285Z,14.13
2022-11-07T14:20:58.322Z,14.11
2022-11-07T14:23:27.713Z,14.21
2022-11-07T14:26:07.702Z,14.12
2022-11-07T14:28:40.891Z,14.21
2022-11-07T14:31:16.217Z,14.21
2022-11-07T14:33:51.595Z,14.19
2022-11-07T14:36:18.939Z,14.21
2022-11-07T14:38:50.761Z,14.23
2022-11-07T14:41:18.326Z,14.13
2022-11-07T14:43:46.107Z,14.17
2022-11-07T14:46:19.281Z,14.13
2022-11-07T14:48:48.269Z,14.08
2022-11-07T14:51:17.334Z,14.13
2022-11-07T14:53:57.622Z,14.17
2022-11-07T14:56:32.473Z,14.17
2022-11-07T14:58:59.673Z,14.11
2022-11-07T15:01:32.012Z,14.06
2022-11-07T15:04:15.163Z,14.06
2022-11-07T15:06:43.724Z,14.00
2022-11-07T15:09:11.487Z,13.98
2022-11-07T15:11:40.215Z,13.91
2022-11-07T15:14:22.625Z,14.04
2022-11-07T15:16:50.793Z,13.98
2022-11-07T15:19:20.904Z,13.81
2022-11-07T15:21:56.938Z,13.86
2022-11-07T15:24:44.399Z,13.82
2022-11-07T15:27:23.766Z,13.85
2022-11-07T15:29:56.710Z,13.94
2022-11-07T15:32:26.432Z,13.82
2022-11-07T15:38:01.344Z,13.78
2022-11-07T15:40:28.600Z,13.84
2022-11-07T15:42:56.466Z,13.74
2022-11-07T15:45:23.981Z,13.75
2022-11-07T15:47:53.258Z,13.67
2022-11-07T15:50:25.093Z,13.60
2022-11-07T15:52:55.720Z,13.63
2022-11-07T15:55:24.561Z,13.64
2022-11-07T15:57:54.575Z,13.55
2022-11-07T16:00:28.019Z,13.41
2022-11-07T16:02:59.800Z,13.43
2022-11-07T16:05:28.162Z,13.34
2022-11-07T16:07:55.562Z,13.39
2022-11-07T16:10:27.087Z,13.41
2022-11-07T16:12:55.240Z,13.40
2022-11-07T16:15:24.621Z,13.36
2022-11-07T16:17:51.614Z,13.36
2022-11-07T16:20:21.436Z,13.31
2022-11-07T16:22:51.899Z,13.29
2022-11-07T16:25:22.581Z,13.32
2022-11-07T16:28:00.321Z,13.37
2022-11-07T16:30:28.676Z,13.46
2022-11-07T16:32:57.024Z,13.57
2022-11-07T16:35:24.889Z,13.58
2022-11-07T16:37:51.605Z,13.49
2022-11-07T16:40:20.265Z,13.50
2022-11-07T16:42:47.800Z,13.48
2022-11-07T16:45:20.756Z,13.45
2022-11-07T16:47:48.044Z,13.49
2022-11-07T16:50:16.318Z,13.52
2022-11-07T16:52:43.716Z,13.50
2022-11-07T16:55:18.913Z,13.43
2022-11-07T16:57:46.795Z,13.44
2022-11-07T17:00:21.904Z,13.39
2022-11-07T17:02:49.110Z,13.37
2022-11-07T17:05:16.961Z,13.29
2022-11-07T17:07:43.949Z,13.20
2022-11-07T17:10:16.781Z,13.24
2022-11-07T17:12:45.523Z,13.26
2022-11-07T17:15:15.072Z,13.25
2022-11-07T17:17:46.633Z,13.22
2022-11-07T17:20:52.387Z,13.20
2022-11-07T17:23:12.492Z,13.15
2022-11-07T17:25:40.607Z,13.12
2022-11-07T17:28:08.022Z,13.14
2022-11-07T17:30:35.300Z,13.02
2022-11-07T17:33:03.885Z,13.09
2022-11-07T17:35:33.212Z,12.99
2022-11-07T17:38:00.468Z,13.04
2022-11-07T17:40:29.792Z,12.94
2022-11-07T17:42:58.336Z,12.95
2022-11-07T17:45:26.577Z,13.00
2022-11-07T17:47:53.585Z,12.93
2022-11-07T17:50:22.106Z,12.84
2022-11-07T17:52:49.385Z,12.89
2022-11-07T17:55:16.596Z,12.90
2022-11-07T17:57:46.180Z,12.86
2022-11-07T18:00:19.224Z,12.88
2022-11-07T18:02:47.315Z,12.85
2022-11-07T18:05:16.902Z,12.82
2022-11-07T18:07:45.612Z,12.85
2022-11-07T18:10:16.325Z,12.81
2022-11-07T18:12:43.574Z,12.81
2022-11-07T18:15:13.594Z,12.77
2022-11-07T18:17:41.514Z,12.83
2022-11-07T18:20:10.278Z,12.76
2022-11-07T18:22:37.731Z,12.81
2022-11-07T18:25:08.815Z,12.84
2022-11-07T18:27:36.438Z,12.78
2022-11-07T18:30:06.427Z,12.74
2022-11-07T18:32:36.321Z,12.76
2022-11-07T18:35:06.620Z,12.66
2022-11-07T18:37:34.113Z,12.74
2022-11-07T18:40:01.246Z,12.74
2022-11-07T18:42:29.463Z,12.74
2022-11-07T18:44:56.177Z,12.73
2022-11-07T18:47:23.480Z,12.73
2022-11-07T18:49:55.746Z,12.67
2022-11-07T18:52:24.893Z,12.75
2022-11-07T18:54:53.054Z,12.74
2022-11-07T18:57:19.781Z,12.70
2022-11-07T18:59:46.760Z,12.83
2022-11-07T19:02:15.117Z,12.84
2022-11-07T19:04:44.922Z,12.87
2022-11-07T19:07:12.734Z,12.85
2022-11-07T19:09:40.569Z,12.82
2022-11-07T19:12:08.123Z,12.80
2022-11-07T19:14:35.146Z,12.88
2022-11-07T19:17:02.406Z,12.93
2022-11-07T19:19:29.717Z,12.89
2022-11-07T19:21:57.425Z,12.88
2022-11-07T19:24:24.894Z,12.92
2022-11-07T19:26:51.961Z,12.93
2022-11-07T19:29:20.329Z,12.95
2022-11-07T19:31:48.158Z,12.92
2022-11-07T19:34:17.203Z,12.87
2022-11-07T19:36:44.570Z,12.84
2022-11-07T19:39:11.409Z,12.85
2022-11-07T19:41:38.826Z,12.85
2022-11-07T19:44:06.643Z,12.92
2022-11-07T19:46:33.803Z,12.94
2022-11-07T19:49:00.611Z,12.92
2022-11-07T19:51:27.988Z,12.87
2022-11-07T19:53:57.733Z,12.89
2022-11-07T19:56:26.780Z,12.91
2022-11-07T19:58:55.417Z,12.93
2022-11-07T20:01:29.772Z,12.86
2022-11-07T20:03:57.900Z,12.84
2022-11-07T20:06:31.719Z,12.83
2022-11-07T20:09:02.577Z,12.80
2022-11-07T20:11:30.350Z,12.80
2022-11-07T20:14:03.234Z,12.72
2022-11-07T20:16:31.725Z,12.64
2022-11-07T20:19:00.821Z,12.57
2022-11-07T20:21:29.834Z,12.61
2022-11-07T20:23:59.973Z,12.56
2022-11-07T20:26:29.827Z,12.55
2022-11-07T20:28:58.410Z,12.53
2022-11-07T20:31:31.092Z,12.54
2022-11-07T20:34:00.436Z,12.55
2022-11-07T20:36:27.734Z,12.56
2022-11-07T20:38:56.033Z,12.55
2022-11-07T20:41:27.346Z,12.50
2022-11-07T20:43:55.982Z,12.51
2022-11-07T20:46:23.525Z,12.51
2022-11-07T20:48:50.909Z,12.49
2022-11-07T20:51:22.597Z,12.49
2022-11-07T20:53:50.911Z,12.55
2022-11-07T20:56:19.739Z,12.46
2022-11-07T20:58:47.594Z,12.45
2022-11-07T21:01:20.886Z,12.35
2022-11-07T21:03:48.945Z,12.32
2022-11-07T21:06:16.304Z,12.28
2022-11-07T21:08:48.670Z,12.31
2022-11-07T21:11:16.584Z,12.27
2022-11-07T21:13:49.660Z,12.36
2022-11-07T21:16:18.817Z,12.33
2022-11-07T21:18:45.628Z,12.21
2022-11-07T21:21:21.814Z,12.27
2022-11-07T21:23:49.994Z,12.25
2022-11-07T21:26:32.254Z,12.20
2022-11-07T21:29:01.176Z,12.19
2022-11-07T21:31:30.487Z,12.16
2022-11-07T21:33:58.349Z,12.14
2022-11-07T21:36:28.047Z,12.11
2022-11-07T21:38:59.110Z,12.11
2022-11-07T21:41:27.476Z,12.11
2022-11-07T21:43:55.602Z,12.05
2022-11-07T21:46:26.167Z,12.00
2022-11-07T21:48:54.123Z,11.89
2022-11-07T21:51:23.726Z,11.81
2022-11-07T21:53:52.242Z,11.78
2022-11-07T21:56:24.603Z,11.68
2022-11-07T21:58:53.858Z,11.60
2022-11-07T22:01:22.963Z,11.54
2022-11-07T22:04:07.959Z,11.36
2022-11-07T22:06:39.019Z,11.41
2022-11-07T22:09:08.118Z,11.37
2022-11-07T22:11:35.633Z,11.39
2022-11-07T22:14:02.806Z,11.38
2022-11-07T22:16:29.936Z,11.36
2022-11-07T22:18:59.266Z,11.40
2022-11-07T22:21:28.356Z,11.37
2022-11-07T22:23:56.634Z,11.47
2022-11-07T22:26:26.066Z,11.64
2022-11-07T22:28:54.715Z,11.63
2022-11-07T22:31:31.488Z,11.67
2022-11-07T22:34:00.180Z,11.79
2022-11-07T22:36:27.232Z,11.85
2022-11-07T22:38:54.060Z,11.94
2022-11-07T22:41:23.356Z,12.02
2022-11-07T22:43:50.617Z,12.10
2022-11-07T22:46:20.596Z,12.13
2022-11-07T22:48:50.595Z,12.16
2022-11-07T22:51:26.869Z,12.09
2022-11-07T22:54:08.358Z,12.16
2022-11-07T22:56:36.755Z,12.24
2022-11-07T22:59:05.990Z,12.26
2022-11-07T23:01:41.248Z,12.25
2022-11-07T23:04:10.037Z,12.27
2022-11-07T23:06:37.915Z,12.31
2022-11-07T23:09:05.637Z,12.33
2022-11-07T23:11:51.649Z,12.38
2022-11-07T23:14:23.193Z,12.28
2022-11-07T23:16:54.254Z,12.34
2022-11-07T23:19:25.397Z,12.24
2022-11-07T23:21:55.729Z,12.22
2022-11-07T23:24:23.125Z,12.27
2022-11-07T23:26:50.493Z,12.32
2022-11-07T23:29:21.524Z,12.25
2022-11-07T23:31:50.060Z,12.25
2022-11-07T23:34:18.528Z,12.27
2022-11-07T23:36:46.484Z,12.26
2022-11-07T23:39:17.529Z,12.22
2022-11-07T23:41:46.620Z,12.22
2022-11-07T23:44:16.509Z,12.14
2022-11-07T23:47:02.540Z,12.19
2022-11-07T23:49:49.291Z,12.18
2022-11-07T23:52:18.835Z,12.25
2022-11-07T23:55:04.739Z,12.26
2022-11-07T23:57:58.471Z,12.26
